createdAt,value
2023-03-31T00:02:45.954Z,16.58
2023-03-31T00:07:48.551Z,18.83
2023-03-31T00:12:50.617Z,16.10
2023-03-31T00:17:52.985Z,18.50
2023-03-31T00:22:57.527Z,15.00
2023-03-31T00:27:59.642Z,15.98
2023-03-31T00:33:02.982Z,16.42
2023-03-31T00:38:08.886Z,14.00
2023-03-31T00:43:25.448Z,13.90
2023-03-31T00:48:27.955Z,13.45
2023-03-31T00:53:32.522Z,14.18
2023-03-31T00:58:34.759Z,9.32
2023-03-31T01:03:38.428Z,13.20
2023-03-31T01:08:41.675Z,18.10
2023-03-31T01:13:45.843Z,14.10
2023-03-31T01:18:49.938Z,20.25
2023-03-31T01:24:24.091Z,16.27
2023-03-31T01:30:03.676Z,12.48
2023-03-31T01:35:27.032Z,13.68
2023-03-31T01:40:59.070Z,17.42
2023-03-31T01:46:11.044Z,17.55
2023-03-31T01:51:17.998Z,19.42
2023-03-31T01:56:33.276Z,13.60
2023-03-31T02:01:41.863Z,16.77
2023-03-31T02:06:52.821Z,9.93
2023-03-31T02:11:56.982Z,14.33
2023-03-31T02:17:03.736Z,18.77
2023-03-31T02:22:08.506Z,11.55
2023-03-31T02:27:20.944Z,16.95
2023-03-31T02:32:38.855Z,8.13
2023-03-31T02:37:42.495Z,10.48
2023-03-31T02:42:44.594Z,12.10
2023-03-31T02:47:46.686Z,12.02
2023-03-31T02:53:03.460Z,10.63
2023-03-31T02:58:19.208Z,10.75
2023-03-31T03:03:42.502Z,14.82
2023-03-31T03:09:26.379Z,14.10
2023-03-31T03:14:47.988Z,10.40
2023-03-31T03:20:00.326Z,16.77
2023-03-31T03:25:02.649Z,14.30
2023-03-31T03:30:06.847Z,18.52
2023-03-31T03:35:09.815Z,11.80
2023-03-31T03:40:12.135Z,13.88
2023-03-31T03:45:14.227Z,19.13
2023-03-31T03:50:16.689Z,12.38
2023-03-31T03:55:18.782Z,17.55
2023-03-31T04:00:21.927Z,12.15
2023-03-31T04:05:24.187Z,14.13
2023-03-31T04:10:26.323Z,8.88
2023-03-31T04:15:28.568Z,6.72
2023-03-31T04:20:31.818Z,12.90
2023-03-31T04:25:38.996Z,12.30
2023-03-31T04:30:41.073Z,11.40
2023-03-31T04:35:52.716Z,11.90
2023-03-31T04:40:56.194Z,7.45
2023-03-31T04:45:58.285Z,9.68
2023-03-31T04:51:00.438Z,10.82
2023-03-31T04:56:03.968Z,11.38
2023-03-31T05:01:06.709Z,10.55
2023-03-31T05:06:09.465Z,8.73
2023-03-31T05:11:11.728Z,7.38
2023-03-31T05:16:14.759Z,10.48
2023-03-31T05:21:19.265Z,12.60
2023-03-31T05:26:22.958Z,5.43
2023-03-31T05:31:25.009Z,7.30
2023-03-31T05:36:27.263Z,8.55
2023-03-31T05:41:29.441Z,7.85
2023-03-31T05:46:31.776Z,13.25
2023-03-31T05:51:34.621Z,7.63
2023-03-31T05:56:36.735Z,7.97
2023-03-31T06:01:39.030Z,9.45
2023-03-31T06:06:42.975Z,7.07
2023-03-31T06:11:46.043Z,5.22
2023-03-31T06:16:48.260Z,11.50
2023-03-31T06:21:51.379Z,8.13
2023-03-31T06:26:54.026Z,9.90
2023-03-31T06:31:56.670Z,9.23
2023-03-31T06:36:58.709Z,7.45
2023-03-31T06:42:00.778Z,7.38
2023-03-31T06:47:03.824Z,6.45
2023-03-31T06:52:06.237Z,10.57
2023-03-31T06:57:08.598Z,7.60
2023-03-31T07:02:11.355Z,10.25
2023-03-31T07:07:13.523Z,7.10
2023-03-31T07:12:15.658Z,14.07
2023-03-31T07:17:17.723Z,15.15
2023-03-31T07:22:19.878Z,15.10
2023-03-31T07:27:23.579Z,18.20
2023-03-31T07:32:29.116Z,11.65
2023-03-31T07:37:37.029Z,14.18
2023-03-31T07:42:39.225Z,16.63
2023-03-31T07:47:41.373Z,16.92
2023-03-31T07:52:46.710Z,24.95
2023-03-31T07:57:51.242Z,17.58
2023-03-31T08:02:53.528Z,18.15
2023-03-31T08:07:55.580Z,19.83
2023-03-31T08:12:57.609Z,20.55
2023-03-31T08:18:00.158Z,20.52
2023-03-31T08:23:02.393Z,23.77
2023-03-31T08:28:04.515Z,17.40
2023-03-31T08:33:07.874Z,24.60
2023-03-31T08:38:10.054Z,22.15
2023-03-31T08:43:22.415Z,25.42
2023-03-31T08:48:29.279Z,20.85
2023-03-31T08:53:36.861Z,18.23
2023-03-31T08:58:45.062Z,26.67
2023-03-31T09:04:14.272Z,19.38
2023-03-31T09:09:55.633Z,19.42
2023-03-31T09:15:05.212Z,17.38
2023-03-31T09:20:16.977Z,18.38
2023-03-31T09:25:23.592Z,18.58
2023-03-31T09:30:35.364Z,21.15
2023-03-31T09:35:37.967Z,22.10
2023-03-31T09:40:40.481Z,17.30
2023-03-31T09:45:52.090Z,17.17
2023-03-31T09:51:07.877Z,18.42
2023-03-31T09:56:11.527Z,16.58
2023-03-31T10:01:15.583Z,18.52
2023-03-31T10:06:18.432Z,13.75
2023-03-31T10:11:20.679Z,9.35
2023-03-31T10:16:28.784Z,13.45
2023-03-31T10:21:36.623Z,20.90
2023-03-31T10:26:40.547Z,16.15
2023-03-31T10:31:43.186Z,20.38
2023-03-31T10:36:51.764Z,14.68
2023-03-31T10:41:53.991Z,14.80
2023-03-31T10:47:07.073Z,14.93
2023-03-31T10:52:21.488Z,14.27
2023-03-31T10:57:35.962Z,14.63
2023-03-31T11:02:59.773Z,15.35
2023-03-31T11:08:20.598Z,18.52
2023-03-31T11:13:38.665Z,17.67
2023-03-31T11:19:03.414Z,17.52
2023-03-31T11:24:19.853Z,16.88
2023-03-31T11:29:41.855Z,19.77
2023-03-31T11:35:00.600Z,18.58
2023-03-31T11:40:23.937Z,15.05
2023-03-31T11:45:32.133Z,17.80
2023-03-31T11:50:39.866Z,22.52
2023-03-31T11:55:43.215Z,17.38
2023-03-31T12:00:51.702Z,16.30
2023-03-31T12:05:58.877Z,17.05
2023-03-31T12:11:08.694Z,15.02
2023-03-31T12:16:24.016Z,17.73
2023-03-31T12:21:28.534Z,18.13
2023-03-31T12:26:51.139Z,15.20
2023-03-31T12:31:57.366Z,15.43
2023-03-31T12:37:10.999Z,16.85
2023-03-31T12:42:46.498Z,11.35
2023-03-31T12:48:04.352Z,11.75
2023-03-31T12:53:44.723Z,15.70
2023-03-31T12:58:46.978Z,10.70
2023-03-31T13:03:51.995Z,14.00
2023-03-31T13:09:03.542Z,11.48
2023-03-31T13:14:28.614Z,11.63
2023-03-31T13:19:35.771Z,9.07
2023-03-31T13:24:38.028Z,11.63
2023-03-31T13:29:43.971Z,8.75
2023-03-31T13:35:04.611Z,12.05
2023-03-31T13:40:28.060Z,6.72
2023-03-31T13:45:51.177Z,6.65
2023-03-31T13:51:17.932Z,5.97
2023-03-31T13:56:41.663Z,8.32
2023-03-31T14:02:08.367Z,9.13
2023-03-31T14:07:18.220Z,8.70
2023-03-31T14:12:35.804Z,4.63
2023-03-31T14:17:40.682Z,7.63
2023-03-31T14:22:46.245Z,6.28
2023-03-31T14:27:58.364Z,5.88
2023-03-31T14:33:16.513Z,6.60
2023-03-31T14:38:21.413Z,9.32
2023-03-31T14:43:29.672Z,7.38
2023-03-31T14:48:34.711Z,5.72
2023-03-31T14:53:36.880Z,4.05
2023-03-31T14:58:43.656Z,4.40
2023-03-31T15:03:46.901Z,4.10
2023-03-31T15:08:49.766Z,6.05
2023-03-31T15:14:04.400Z,3.67
2023-03-31T15:19:21.147Z,2.90
2023-03-31T15:24:23.918Z,4.50
2023-03-31T15:29:51.119Z,4.45
2023-03-31T15:34:54.632Z,4.40
2023-03-31T15:39:59.773Z,3.65
2023-03-31T15:45:35.871Z,3.90
2023-03-31T15:50:39.012Z,4.53
2023-03-31T16:00:54.292Z,3.05
2023-03-31T16:05:58.660Z,6.32
2023-03-31T16:11:05.248Z,3.25
2023-03-31T16:16:13.682Z,5.40
2023-03-31T16:21:22.511Z,2.53
2023-03-31T16:26:27.966Z,3.28
2023-03-31T16:31:40.166Z,2.72
2023-03-31T16:36:42.817Z,4.57
2023-03-31T16:41:44.998Z,5.00
2023-03-31T16:46:47.099Z,6.20
2023-03-31T16:51:49.268Z,6.18
2023-03-31T16:56:51.809Z,7.90
2023-03-31T17:01:53.927Z,6.93
2023-03-31T17:06:56.110Z,8.60
2023-03-31T17:11:58.303Z,8.02
2023-03-31T17:17:00.575Z,9.23
2023-03-31T17:22:03.579Z,8.18
2023-03-31T17:27:05.833Z,9.35
2023-03-31T17:32:07.870Z,11.38
2023-03-31T17:37:10.055Z,9.95
2023-03-31T17:42:13.483Z,13.40
2023-03-31T17:47:16.640Z,12.35
2023-03-31T17:52:18.768Z,9.73
2023-03-31T17:57:20.870Z,11.02
2023-03-31T18:02:24.848Z,10.30
2023-03-31T18:07:27.200Z,9.15
2023-03-31T18:12:29.648Z,13.70
2023-03-31T18:17:31.761Z,13.57
2023-03-31T18:22:33.926Z,11.50
2023-03-31T18:27:36.153Z,10.43
2023-03-31T18:32:38.526Z,11.75
2023-03-31T18:37:40.842Z,8.77
2023-03-31T18:42:42.935Z,9.27
2023-03-31T18:47:44.978Z,8.38
2023-03-31T18:52:47.738Z,13.85
2023-03-31T18:57:51.238Z,10.40
2023-03-31T19:02:53.610Z,9.88
2023-03-31T19:07:56.349Z,9.25
2023-03-31T19:12:58.878Z,15.70
2023-03-31T19:18:01.364Z,12.60
2023-03-31T19:23:04.206Z,16.15
2023-03-31T19:28:07.072Z,18.73
2023-03-31T19:33:09.282Z,15.82
2023-03-31T19:38:11.847Z,15.25
2023-03-31T19:43:23.077Z,18.08
2023-03-31T19:48:26.531Z,20.88
2023-03-31T19:53:28.727Z,17.08
2023-03-31T19:58:33.092Z,19.52
2023-03-31T20:03:35.518Z,20.58
2023-03-31T20:08:41.490Z,15.05
2023-03-31T20:13:44.644Z,12.75
2023-03-31T20:18:55.598Z,16.08
2023-03-31T20:23:58.928Z,16.35
2023-03-31T20:29:02.792Z,15.80
2023-03-31T20:34:08.542Z,14.35
2023-03-31T20:39:12.948Z,16.23
2023-03-31T20:44:15.763Z,12.32
2023-03-31T20:49:18.008Z,16.77
2023-03-31T20:54:20.089Z,11.60
2023-03-31T20:59:23.033Z,16.65
2023-03-31T21:04:25.541Z,12.90
2023-03-31T21:09:27.650Z,16.80
2023-03-31T21:14:29.993Z,13.38
2023-03-31T21:19:32.138Z,12.52
2023-03-31T21:24:35.068Z,12.70
2023-03-31T21:29:37.338Z,15.52
2023-03-31T21:34:39.527Z,15.35
2023-03-31T21:39:41.980Z,15.15
2023-03-31T21:44:44.085Z,17.35
2023-03-31T21:49:46.067Z,16.03
2023-03-31T21:54:48.293Z,14.70
2023-03-31T21:59:50.824Z,14.38
2023-03-31T22:04:53.207Z,14.35
2023-03-31T22:09:55.430Z,12.23
2023-03-31T22:14:57.745Z,14.07
2023-03-31T22:19:59.722Z,16.17
2023-03-31T22:25:01.714Z,14.90
2023-03-31T22:30:04.564Z,15.68
2023-03-31T22:35:07.140Z,16.92
2023-03-31T22:40:09.953Z,15.85
2023-03-31T22:45:11.990Z,13.48
2023-03-31T22:50:13.997Z,13.65
2023-03-31T22:55:16.862Z,20.50
2023-03-31T23:00:19.221Z,14.25
2023-03-31T23:05:24.118Z,14.27
2023-03-31T23:10:27.096Z,11.23
2023-03-31T23:15:29.236Z,15.57
2023-03-31T23:20:31.664Z,16.58
2023-03-31T23:25:33.931Z,13.98
2023-03-31T23:30:36.114Z,14.27
2023-03-31T23:35:38.290Z,12.40
2023-03-31T23:40:40.321Z,13.18
2023-03-31T23:45:43.108Z,13.38
2023-03-31T23:50:45.600Z,14.63
2023-03-31T23:55:59.627Z,11.25
